sensor_id;sensor_type;location;lat;lon;timestamp;P1;durP1;ratioP1;P2;durP2;ratioP2
26838;SDS011;40088;51.214;6.786;2022-12-10T00:04:41;14.52;;;11.40;;
26838;SDS011;40088;51.214;6.786;2022-12-10T00:14:41;13.70;;;11.45;;
26838;SDS011;40088;51.214;6.786;2022-12-10T00:24:42;15.35;;;11.98;;
26838;SDS011;40088;51.214;6.786;2022-12-10T00:34:42;13.35;;;11.05;;
26838;SDS011;40088;51.214;6.786;2022-12-10T00:44:42;16.40;;;12.85;;
26838;SDS011;40088;51.214;6.786;2022-12-10T00:54:42;14.25;;;12.48;;
26838;SDS011;40088;51.214;6.786;2022-12-10T01:04:43;15.00;;;11.82;;
26838;SDS011;40088;51.214;6.786;2022-12-10T01:14:43;15.40;;;11.90;;
26838;SDS011;40088;51.214;6.786;2022-12-10T01:24:43;16.60;;;13.25;;
26838;SDS011;40088;51.214;6.786;2022-12-10T01:34:43;15.60;;;12.80;;
26838;SDS011;40088;51.214;6.786;2022-12-10T01:54:45;15.88;;;12.30;;
26838;SDS011;40088;51.214;6.786;2022-12-10T02:05:32;14.38;;;12.02;;
26838;SDS011;40088;51.214;6.786;2022-12-10T02:15:19;15.60;;;12.93;;
26838;SDS011;40088;51.214;6.786;2022-12-10T02:25:28;15.40;;;12.80;;
26838;SDS011;40088;51.214;6.786;2022-12-10T02:35:33;14.95;;;13.02;;
26838;SDS011;40088;51.214;6.786;2022-12-10T02:45:38;15.75;;;12.98;;
26838;SDS011;40088;51.214;6.786;2022-12-10T03:05:56;14.77;;;12.23;;
26838;SDS011;40088;51.214;6.786;2022-12-10T03:16:03;18.75;;;14.98;;
26838;SDS011;40088;51.214;6.786;2022-12-10T03:26:04;15.90;;;13.48;;
26838;SDS011;40088;51.214;6.786;2022-12-10T03:36:05;19.17;;;14.55;;
26838;SDS011;40088;51.214;6.786;2022-12-10T03:46:08;15.27;;;12.80;;
26838;SDS011;40088;51.214;6.786;2022-12-10T03:56:08;15.43;;;12.65;;
26838;SDS011;40088;51.214;6.786;2022-12-10T04:06:12;17.93;;;14.33;;
26838;SDS011;40088;51.214;6.786;2022-12-10T04:16:14;19.50;;;15.05;;
26838;SDS011;40088;51.214;6.786;2022-12-10T04:26:26;19.08;;;14.48;;
26838;SDS011;40088;51.214;6.786;2022-12-10T04:36:45;17.35;;;14.45;;
26838;SDS011;40088;51.214;6.786;2022-12-10T04:46:46;16.27;;;13.40;;
26838;SDS011;40088;51.214;6.786;2022-12-10T04:56:47;16.25;;;13.13;;
26838;SDS011;40088;51.214;6.786;2022-12-10T05:06:48;17.42;;;14.10;;
26838;SDS011;40088;51.214;6.786;2022-12-10T05:16:49;16.58;;;13.52;;
26838;SDS011;40088;51.214;6.786;2022-12-10T05:26:51;15.65;;;12.85;;
26838;SDS011;40088;51.214;6.786;2022-12-10T05:36:51;16.75;;;13.15;;
26838;SDS011;40088;51.214;6.786;2022-12-10T05:46:51;16.85;;;13.00;;
26838;SDS011;40088;51.214;6.786;2022-12-10T05:56:52;17.02;;;13.65;;
26838;SDS011;40088;51.214;6.786;2022-12-10T06:06:53;16.58;;;13.45;;
26838;SDS011;40088;51.214;6.786;2022-12-10T06:16:53;15.45;;;12.60;;
26838;SDS011;40088;51.214;6.786;2022-12-10T06:26:53;18.73;;;13.82;;
26838;SDS011;40088;51.214;6.786;2022-12-10T06:36:54;19.70;;;14.63;;
26838;SDS011;40088;51.214;6.786;2022-12-10T06:46:54;18.40;;;13.82;;
26838;SDS011;40088;51.214;6.786;2022-12-10T06:56:54;20.98;;;15.68;;
26838;SDS011;40088;51.214;6.786;2022-12-10T07:06:55;22.17;;;16.23;;
26838;SDS011;40088;51.214;6.786;2022-12-10T07:16:55;20.45;;;15.35;;
26838;SDS011;40088;51.214;6.786;2022-12-10T07:26:55;19.63;;;15.45;;
26838;SDS011;40088;51.214;6.786;2022-12-10T07:36:56;22.02;;;16.48;;
26838;SDS011;40088;51.214;6.786;2022-12-10T07:46:56;19.15;;;15.55;;
26838;SDS011;40088;51.214;6.786;2022-12-10T07:56:56;24.58;;;17.38;;
26838;SDS011;40088;51.214;6.786;2022-12-10T08:06:57;26.60;;;19.17;;
26838;SDS011;40088;51.214;6.786;2022-12-10T08:16:57;23.85;;;17.45;;
26838;SDS011;40088;51.214;6.786;2022-12-10T08:26:57;24.65;;;18.17;;
26838;SDS011;40088;51.214;6.786;2022-12-10T08:36:57;22.95;;;16.77;;
26838;SDS011;40088;51.214;6.786;2022-12-10T08:46:58;23.02;;;16.88;;
26838;SDS011;40088;51.214;6.786;2022-12-10T08:56:58;25.00;;;18.50;;
26838;SDS011;40088;51.214;6.786;2022-12-10T09:06:58;25.65;;;18.65;;
26838;SDS011;40088;51.214;6.786;2022-12-10T09:16:59;28.00;;;19.52;;
26838;SDS011;40088;51.214;6.786;2022-12-10T09:37:03;25.20;;;18.60;;
26838;SDS011;40088;51.214;6.786;2022-12-10T09:47:04;21.45;;;16.08;;
26838;SDS011;40088;51.214;6.786;2022-12-10T09:57:10;24.58;;;18.30;;
26838;SDS011;40088;51.214;6.786;2022-12-10T10:07:28;24.95;;;18.15;;
26838;SDS011;40088;51.214;6.786;2022-12-10T10:17:31;23.13;;;17.20;;
26838;SDS011;40088;51.214;6.786;2022-12-10T10:27:35;27.52;;;19.27;;
26838;SDS011;40088;51.214;6.786;2022-12-10T10:47:35;24.48;;;18.13;;
26838;SDS011;40088;51.214;6.786;2022-12-10T10:57:36;27.27;;;18.73;;
26838;SDS011;40088;51.214;6.786;2022-12-10T11:07:38;23.60;;;16.92;;
26838;SDS011;40088;51.214;6.786;2022-12-10T11:17:40;22.17;;;16.73;;
26838;SDS011;40088;51.214;6.786;2022-12-10T11:38:32;21.48;;;15.15;;
26838;SDS011;40088;51.214;6.786;2022-12-10T11:59:15;24.63;;;17.38;;
26838;SDS011;40088;51.214;6.786;2022-12-10T12:30:20;18.67;;;14.13;;
26838;SDS011;40088;51.214;6.786;2022-12-10T12:40:44;17.83;;;14.43;;
26838;SDS011;40088;51.214;6.786;2022-12-10T12:50:53;19.27;;;14.38;;
26838;SDS011;40088;51.214;6.786;2022-12-10T13:01:18;18.27;;;12.98;;
26838;SDS011;40088;51.214;6.786;2022-12-10T13:11:30;17.83;;;13.17;;
26838;SDS011;40088;51.214;6.786;2022-12-10T13:21:32;17.98;;;13.50;;
26838;SDS011;40088;51.214;6.786;2022-12-10T13:31:34;15.85;;;12.88;;
26838;SDS011;40088;51.214;6.786;2022-12-10T13:41:40;15.57;;;13.13;;
26838;SDS011;40088;51.214;6.786;2022-12-10T13:52:19;15.63;;;12.10;;
26838;SDS011;40088;51.214;6.786;2022-12-10T14:12:46;17.25;;;12.77;;
26838;SDS011;40088;51.214;6.786;2022-12-10T14:22:48;15.25;;;12.32;;
26838;SDS011;40088;51.214;6.786;2022-12-10T14:32:50;15.00;;;11.63;;
26838;SDS011;40088;51.214;6.786;2022-12-10T14:42:57;14.02;;;10.93;;
26838;SDS011;40088;51.214;6.786;2022-12-10T14:53:04;14.95;;;11.15;;
26838;SDS011;40088;51.214;6.786;2022-12-10T15:03:11;15.10;;;11.05;;
26838;SDS011;40088;51.214;6.786;2022-12-10T15:13:59;14.88;;;11.15;;
26838;SDS011;40088;51.214;6.786;2022-12-10T15:24:09;12.77;;;10.25;;
26838;SDS011;40088;51.214;6.786;2022-12-10T15:34:14;14.30;;;11.35;;
26838;SDS011;40088;51.214;6.786;2022-12-10T15:44:19;13.37;;;11.00;;
26838;SDS011;40088;51.214;6.786;2022-12-10T15:54:31;14.35;;;10.88;;
26838;SDS011;40088;51.214;6.786;2022-12-10T16:04:39;15.37;;;10.90;;
26838;SDS011;40088;51.214;6.786;2022-12-10T16:14:49;14.30;;;11.57;;
26838;SDS011;40088;51.214;6.786;2022-12-10T16:24:51;13.50;;;10.90;;
26838;SDS011;40088;51.214;6.786;2022-12-10T16:34:51;13.52;;;10.85;;
26838;SDS011;40088;51.214;6.786;2022-12-10T16:44:52;16.10;;;11.57;;
26838;SDS011;40088;51.214;6.786;2022-12-10T16:54:52;13.95;;;11.05;;
26838;SDS011;40088;51.214;6.786;2022-12-10T17:04:54;20.45;;;14.07;;
26838;SDS011;40088;51.214;6.786;2022-12-10T17:14:54;16.30;;;12.35;;
26838;SDS011;40088;51.214;6.786;2022-12-10T17:24:54;14.82;;;12.00;;
26838;SDS011;40088;51.214;6.786;2022-12-10T17:34:55;14.57;;;11.65;;
26838;SDS011;40088;51.214;6.786;2022-12-10T17:44:55;13.90;;;10.70;;
26838;SDS011;40088;51.214;6.786;2022-12-10T17:54:55;16.05;;;10.90;;
26838;SDS011;40088;51.214;6.786;2022-12-10T18:04:56;19.10;;;13.60;;
26838;SDS011;40088;51.214;6.786;2022-12-10T18:14:56;17.15;;;12.93;;
26838;SDS011;40088;51.214;6.786;2022-12-10T18:24:56;16.98;;;13.18;;
26838;SDS011;40088;51.214;6.786;2022-12-10T18:34:56;19.80;;;14.18;;
26838;SDS011;40088;51.214;6.786;2022-12-10T18:44:57;17.45;;;13.48;;
26838;SDS011;40088;51.214;6.786;2022-12-10T18:54:57;19.17;;;14.85;;
26838;SDS011;40088;51.214;6.786;2022-12-10T19:04:58;20.80;;;15.23;;
26838;SDS011;40088;51.214;6.786;2022-12-10T19:14:58;19.88;;;15.45;;
26838;SDS011;40088;51.214;6.786;2022-12-10T19:24:58;18.85;;;14.23;;
26838;SDS011;40088;51.214;6.786;2022-12-10T19:34:58;20.20;;;15.40;;
26838;SDS011;40088;51.214;6.786;2022-12-10T19:44:59;21.48;;;16.45;;
26838;SDS011;40088;51.214;6.786;2022-12-10T19:54:59;22.67;;;16.63;;
26838;SDS011;40088;51.214;6.786;2022-12-10T20:04:59;22.83;;;16.80;;
26838;SDS011;40088;51.214;6.786;2022-12-10T20:14:59;22.38;;;15.68;;
26838;SDS011;40088;51.214;6.786;2022-12-10T20:25:00;20.58;;;15.90;;
26838;SDS011;40088;51.214;6.786;2022-12-10T20:35:00;19.60;;;14.95;;
26838;SDS011;40088;51.214;6.786;2022-12-10T20:45:00;19.48;;;14.95;;
26838;SDS011;40088;51.214;6.786;2022-12-10T20:55:02;21.45;;;14.77;;
26838;SDS011;40088;51.214;6.786;2022-12-10T21:05:03;19.13;;;14.35;;
26838;SDS011;40088;51.214;6.786;2022-12-10T21:15:04;21.52;;;15.68;;
26838;SDS011;40088;51.214;6.786;2022-12-10T21:25:05;24.23;;;16.15;;
26838;SDS011;40088;51.214;6.786;2022-12-10T21:35:05;19.98;;;14.70;;
26838;SDS011;40088;51.214;6.786;2022-12-10T21:45:06;24.00;;;17.10;;
26838;SDS011;40088;51.214;6.786;2022-12-10T21:55:06;20.37;;;15.33;;
26838;SDS011;40088;51.214;6.786;2022-12-10T22:05:08;20.13;;;15.57;;
26838;SDS011;40088;51.214;6.786;2022-12-10T22:15:09;21.92;;;15.40;;
26838;SDS011;40088;51.214;6.786;2022-12-10T22:25:10;23.15;;;15.43;;
26838;SDS011;40088;51.214;6.786;2022-12-10T22:35:10;21.83;;;15.60;;
26838;SDS011;40088;51.214;6.786;2022-12-10T22:45:11;22.15;;;16.15;;
26838;SDS011;40088;51.214;6.786;2022-12-10T22:55:12;22.13;;;15.93;;
26838;SDS011;40088;51.214;6.786;2022-12-10T23:05:12;22.42;;;15.77;;
26838;SDS011;40088;51.214;6.786;2022-12-10T23:15:12;24.13;;;16.52;;
26838;SDS011;40088;51.214;6.786;2022-12-10T23:25:13;24.85;;;16.65;;
26838;SDS011;40088;51.214;6.786;2022-12-10T23:35:14;25.13;;;17.00;;
26838;SDS011;40088;51.214;6.786;2022-12-10T23:45:15;27.17;;;17.88;;
26838;SDS011;40088;51.214;6.786;2022-12-10T23:55:16;25.73;;;17.20;;
